Time;durP1;ratioP1;P1;durP2;ratioP2;P2;SDS_P1;SDS_P2;PMS_P1;PMS_P2;Temp;Humidity;BMP_temperature;BMP_pressure;BME280_temperature;BME280_humidity;BME280_pressure;Samples;Min_cycle;Max_cycle;Signal;HPM_P1;HPM_P2
2022/07/14 00:00:31;;;;;;;1.57;0.83;;;27.80;96.70;;;;;;5000995;28;20272;-96
2022/07/14 00:03:06;;;;;;;4.20;1.00;;;27.90;95.90;;;;;;5006007;28;20222;-96
2022/07/14 00:05:40;;;;;;;1.53;0.67;;;27.50;96.00;;;;;;4987314;28;20222;-96
2022/07/14 00:08:25;;;;;;;0.90;0.53;;;27.50;95.90;;;;;;5001524;28;20217;-96
2022/07/14 00:10:59;;;;;;;4.30;0.67;;;27.40;95.70;;;;;;5000598;28;20214;-96
2022/07/14 00:13:40;;;;;;;3.23;0.97;;;27.40;95.80;;;;;;5002254;28;20217;-96
2022/07/14 00:19:35;;;;;;;1.97;0.80;;;27.00;92.20;;;;;;5012703;28;20691;-96
2022/07/14 00:25:43;;;;;;;2.70;0.80;;;27.20;92.40;;;;;;5008237;28;20557;-96
2022/07/14 00:28:23;;;;;;;1.03;0.60;;;27.30;93.10;;;;;;5011684;28;20210;-96
2022/07/14 00:31:03;;;;;;;3.13;0.60;;;27.30;92.30;;;;;;5006514;28;20297;-96
2022/07/14 00:33:44;;;;;;;1.17;0.70;;;27.30;91.80;;;;;;4990626;28;20285;-96
2022/07/14 00:36:16;;;;;;;3.30;0.73;;;27.10;93.50;;;;;;5007169;28;20206;-96
2022/07/14 00:41:36;;;;;;;0.63;0.63;;;27.00;93.40;;;;;;5009257;28;20206;-96
2022/07/14 00:44:08;;;;;;;1.40;0.77;;;27.10;93.90;;;;;;5007978;28;20320;-96
2022/07/14 00:46:41;;;;;;;1.83;0.83;;;27.10;93.10;;;;;;5005888;28;20228;-96
2022/07/14 00:49:15;;;;;;;1.67;0.70;;;27.10;94.40;;;;;;5001016;28;20210;-96
2022/07/14 00:51:51;;;;;;;2.47;0.90;;;27.20;94.40;;;;;;4999678;28;20210;-95
2022/07/14 00:54:32;;;;;;;2.37;0.70;;;27.10;95.10;;;;;;5000111;28;20277;-96
2022/07/14 00:57:15;;;;;;;2.00;1.07;;;27.20;95.20;;;;;;5000733;28;20210;-96
2022/07/14 00:59:51;;;;;;;2.07;0.90;;;27.20;94.20;;;;;;5005081;28;20199;-96
2022/07/14 01:02:27;;;;;;;1.50;1.00;;;27.40;94.90;;;;;;5010691;28;20247;-96
2022/07/14 01:08:07;;;;;;;3.07;1.40;;;28.20;93.30;;;;;;5005953;28;20202;-96
2022/07/14 01:10:41;;;;;;;2.53;1.03;;;28.70;94.00;;;;;;5008902;28;20221;-96
2022/07/14 01:13:28;;;;;;;1.63;0.83;;;29.10;93.40;;;;;;5010354;28;20237;-96
2022/07/14 01:16:18;;;;;;;1.43;1.00;;;29.30;92.50;;;;;;5006813;28;20206;-96
2022/07/14 01:27:03;;;;;;;4.67;1.07;;;29.70;92.40;;;;;;5002199;28;20568;-96
2022/07/14 01:29:34;;;;;;;3.00;1.37;;;29.90;92.10;;;;;;5000955;28;20304;-96
2022/07/14 01:32:06;;;;;;;2.60;1.03;;;29.40;93.10;;;;;;5000088;28;20267;-96
2022/07/14 01:34:41;;;;;;;2.77;1.20;;;29.90;92.80;;;;;;5006294;28;20237;-95
2022/07/14 01:37:28;;;;;;;2.70;1.20;;;29.70;92.90;;;;;;5012842;28;20206;-95
2022/07/14 01:45:35;;;;;;;3.03;1.40;;;29.00;94.40;;;;;;4991253;28;20227;-96
2022/07/14 01:48:24;;;;;;;3.50;1.50;;;29.40;94.10;;;;;;4992170;28;20282;-95
2022/07/14 01:54:15;;;;;;;3.33;1.30;;;29.80;94.30;;;;;;4986663;28;20207;-95
2022/07/14 01:57:10;;;;;;;6.17;1.20;;;29.70;93.40;;;;;;4986806;28;20211;-96
2022/07/14 01:59:44;;;;;;;2.97;1.30;;;29.50;93.60;;;;;;4979577;28;20251;-95
2022/07/14 02:02:24;;;;;;;1.10;1.00;;;29.00;94.00;;;;;;4979793;28;20269;-96
2022/07/14 02:07:53;;;;;;;2.00;0.97;;;29.10;92.70;;;;;;5051725;23;20272;-96
2022/07/14 02:18:59;;;;;;;4.13;1.23;;;28.50;93.40;;;;;;5168133;23;20280;-96
2022/07/14 02:21:35;;;;;;;3.27;1.00;;;28.00;94.00;;;;;;5030247;28;20213;-96
2022/07/14 02:24:11;;;;;;;1.80;1.13;;;27.80;94.40;;;;;;5015559;28;20275;-96
2022/07/14 02:26:46;;;;;;;3.03;1.30;;;27.30;94.70;;;;;;5033350;28;20205;-96
2022/07/14 02:32:39;;;;;;;1.53;0.93;;;26.20;95.80;;;;;;5032013;28;20256;-96
2022/07/14 02:46:54;;;;;;;3.13;1.27;;;24.10;98.80;;;;;;5275846;23;20227;-96
2022/07/14 02:49:29;;;;;;;2.37;1.13;;;23.90;99.50;;;;;;5039622;28;20271;-96
2022/07/14 02:52:43;;;;;;;3.47;1.10;;;23.60;99.90;;;;;;5028561;28;20634;-96
2022/07/14 02:55:46;;;;;;;6.40;2.23;;;23.30;99.90;;;;;;5028273;28;20205;-96
2022/07/14 02:58:23;;;;;;;2.70;1.10;;;23.10;99.90;;;;;;5028141;28;20292;-96
2022/07/14 03:00:56;;;;;;;3.07;1.30;;;22.80;99.90;;;;;;5022143;28;20225;-96
2022/07/14 03:09:23;;;;;;;2.43;1.00;;;22.10;99.90;;;;;;5035680;28;20234;-96
2022/07/14 03:44:46;;;;;;;1.73;1.00;;;20.50;99.90;;;;;;5899912;23;20236;-96
2022/07/14 03:47:37;;;;;;;2.00;0.97;;;20.40;99.90;;;;;;5039990;28;20209;-96
2022/07/14 03:50:20;;;;;;;1.13;0.80;;;20.20;99.90;;;;;;5023997;28;20186;-96
2022/07/14 03:52:54;;;;;;;2.13;0.90;;;20.10;99.90;;;;;;5039657;28;20193;-96
2022/07/14 03:55:42;;;;;;;2.70;0.80;;;19.90;99.90;;;;;;5039095;28;20193;-96
2022/07/14 04:01:37;;;;;;;1.80;0.90;;;19.70;99.90;;;;;;5035961;28;20261;-96
2022/07/14 04:04:24;;;;;;;2.43;1.17;;;19.50;99.90;;;;;;5037436;28;20229;-96
2022/07/14 04:06:58;;;;;;;1.20;0.90;;;19.40;99.90;;;;;;5020229;28;20205;-96
2022/07/14 04:09:36;;;;;;;1.83;0.90;;;19.30;99.90;;;;;;5019005;28;20205;-96
2022/07/14 04:12:24;;;;;;;2.93;1.07;;;19.20;99.90;;;;;;5021511;28;20206;-96
2022/07/14 04:15:23;;;;;;;2.30;0.90;;;19.00;99.90;;;;;;5033654;28;20265;-96
2022/07/14 04:25:14;;;;;;;2.90;1.10;;;18.70;99.90;;;;;;5030664;28;20261;-96
2022/07/14 04:39:20;;;;;;;2.87;1.20;;;18.20;99.90;;;;;;4972592;28;20204;-96
2022/07/14 04:41:57;;;;;;;4.90;1.30;;;18.20;99.90;;;;;;4963318;28;20226;-96
2022/07/14 04:44:29;;;;;;;4.87;1.47;;;18.10;99.90;;;;;;4961515;29;20235;-96
2022/07/14 04:47:06;;;;;;;4.37;1.27;;;18.00;99.90;;;;;;4962102;28;20307;-96
2022/07/14 04:52:28;;;;;;;3.63;1.50;;;17.80;99.90;;;;;;4963198;28;20223;-96
2022/07/14 04:57:53;;;;;;;5.43;1.80;;;17.80;99.90;;;;;;4955896;28;20333;-96
2022/07/14 05:00:27;;;;;;;2.70;1.67;;;17.70;99.90;;;;;;4948448;29;20957;-96
2022/07/14 05:02:59;;;;;;;5.17;1.67;;;17.50;99.90;;;;;;4946011;28;20208;-96
2022/07/14 05:05:34;;;;;;;4.20;1.60;;;17.50;99.90;;;;;;4952590;29;20242;-96
2022/07/14 05:11:07;;;;;;;4.73;1.60;;;17.40;99.90;;;;;;4954120;29;20223;-96
2022/07/14 05:13:43;;;;;;;4.70;1.97;;;17.20;99.90;;;;;;4963202;28;20210;-96
2022/07/14 05:33:02;;;;;;;3.73;1.57;;;17.00;99.90;;;;;;5004010;28;20257;-96
2022/07/14 05:35:38;;;;;;;5.60;2.30;;;16.90;99.90;;;;;;5004319;28;20277;-95
2022/07/14 05:38:10;;;;;;;3.10;1.67;;;16.80;99.90;;;;;;5012697;28;20207;-96
2022/07/14 05:40:43;;;;;;;5.77;1.97;;;16.70;99.90;;;;;;5001439;28;20226;-96
2022/07/14 05:43:19;;;;;;;5.53;1.93;;;16.70;99.90;;;;;;5002812;28;20210;-96
2022/07/14 05:49:00;;;;;;;4.70;1.97;;;16.60;99.90;;;;;;5000849;28;20253;-96
2022/07/14 05:51:33;;;;;;;5.67;1.77;;;16.50;99.90;;;;;;4999014;28;20237;-96
2022/07/14 05:54:07;;;;;;;7.47;2.13;;;16.50;99.90;;;;;;4999656;28;20210;-96
2022/07/14 05:59:40;;;;;;;4.27;2.07;;;16.40;99.90;;;;;;5000983;28;20206;-96
2022/07/14 06:05:48;;;;;;;8.37;2.20;;;16.30;99.90;;;;;;4996735;28;20234;-96
2022/07/14 06:11:24;;;;;;;7.13;2.20;;;16.30;99.90;;;;;;5010245;28;20198;-96
2022/07/14 06:14:04;;;;;;;3.83;1.90;;;16.30;99.90;;;;;;5013277;28;20281;-96
2022/07/14 06:22:39;;;;;;;4.67;2.43;;;16.20;99.90;;;;;;5011353;28;20222;-96
2022/07/14 06:25:38;;;;;;;5.23;2.20;;;16.10;99.90;;;;;;5010967;28;20301;-96
2022/07/14 06:28:13;;;;;;;5.67;2.70;;;16.00;99.90;;;;;;5008880;28;20210;-96
2022/07/14 06:30:56;;;;;;;7.93;2.40;;;16.00;99.90;;;;;;5011398;28;20281;-96
2022/07/14 06:33:41;;;;;;;5.30;2.60;;;16.00;99.90;;;;;;5009680;28;20206;-96
2022/07/14 06:36:23;;;;;;;5.70;2.50;;;15.90;99.90;;;;;;4991978;28;20206;-96
2022/07/14 06:45:45;;;;;;;8.67;2.53;;;15.70;99.90;;;;;;5008935;28;20293;-96
2022/07/14 06:54:28;;;;;;;7.33;2.90;;;15.70;99.90;;;;;;5009457;28;20598;-96
2022/07/14 07:00:36;;;;;;;8.77;2.37;;;15.60;99.90;;;;;;4996431;28;20207;-96
2022/07/14 07:19:08;;;;;;;5.27;2.57;;;15.30;99.90;;;;;;4992363;28;20202;-96
2022/07/14 07:37:31;;;;;;;6.73;2.77;;;15.10;99.90;;;;;;4993259;28;20207;-96
2022/07/14 07:51:14;;;;;;;5.30;2.63;;;14.90;99.90;;;;;;5011185;28;20190;-95
2022/07/14 07:54:20;;;;;;;5.17;3.23;;;14.90;99.90;;;;;;5014451;28;20248;-96
2022/07/14 07:57:12;;;;;;;6.33;2.87;;;14.80;99.90;;;;;;5010114;28;20245;-96
2022/07/14 07:59:49;;;;;;;6.33;2.70;;;14.80;99.90;;;;;;4985191;28;20218;-96
2022/07/14 08:02:26;;;;;;;5.57;2.50;;;14.70;99.90;;;;;;5003267;28;20659;-96
2022/07/14 08:04:58;;;;;;;6.47;3.10;;;14.60;99.90;;;;;;5002391;28;20206;-96
2022/07/14 08:07:35;;;;;;;7.60;3.30;;;14.60;99.90;;;;;;5004770;28;20238;-96
2022/07/14 08:10:08;;;;;;;6.10;3.33;;;14.60;99.90;;;;;;5008411;28;20221;-96
2022/07/14 08:12:42;;;;;;;6.07;3.07;;;14.70;99.90;;;;;;5017720;28;20607;-96
2022/07/14 08:15:22;;;;;;;6.57;3.47;;;14.60;99.90;;;;;;5018161;28;20245;-96
2022/07/14 08:17:56;;;;;;;5.83;2.87;;;14.60;99.90;;;;;;4981480;28;20233;-96
2022/07/14 08:20:29;;;;;;;4.53;2.93;;;14.50;99.90;;;;;;4986847;28;20203;-96
2022/07/14 08:23:03;;;;;;;6.53;2.90;;;14.50;99.90;;;;;;4982244;28;20207;-96
2022/07/14 08:25:44;;;;;;;4.63;2.87;;;14.40;99.90;;;;;;4981937;28;20660;-96
2022/07/14 08:28:22;;;;;;;6.00;2.93;;;14.40;99.90;;;;;;4983246;28;20213;-96
2022/07/14 08:30:55;;;;;;;5.40;3.20;;;14.30;99.90;;;;;;4981506;28;20250;-96
2022/07/14 08:33:41;;;;;;;7.40;2.87;;;14.40;99.90;;;;;;4984196;28;20659;-96
2022/07/14 08:36:18;;;;;;;9.70;3.23;;;14.40;99.90;;;;;;4967611;28;20222;-96
2022/07/14 08:38:56;;;;;;;9.23;3.43;;;14.40;99.90;;;;;;4966174;28;20249;-96
2022/07/14 08:41:28;;;;;;;8.47;3.37;;;14.40;99.90;;;;;;4981575;28;20246;-96
2022/07/14 08:44:14;;;;;;;6.57;2.97;;;14.30;99.90;;;;;;4983796;28;20234;-96
2022/07/14 08:46:45;;;;;;;8.10;3.30;;;14.30;99.90;;;;;;4981413;28;20333;-96
2022/07/14 08:49:17;;;;;;;7.30;3.20;;;14.20;99.90;;;;;;4981843;28;20214;-96
2022/07/14 08:52:11;;;;;;;9.83;3.20;;;14.20;99.90;;;;;;4998195;28;20681;-96
2022/07/14 08:54:49;;;;;;;8.40;3.33;;;14.20;99.90;;;;;;5000991;28;20289;-96
2022/07/14 08:57:22;;;;;;;7.37;3.10;;;14.10;99.90;;;;;;5004308;28;20297;-96
2022/07/14 08:59:59;;;;;;;6.60;3.43;;;14.10;99.90;;;;;;5013140;28;20213;-96
2022/07/14 09:02:35;;;;;;;4.23;2.53;;;14.00;99.90;;;;;;5013561;28;20253;-96
2022/07/14 09:05:27;;;;;;;6.20;3.37;;;14.00;99.90;;;;;;5017329;28;20202;-96
2022/07/14 09:08:00;;;;;;;6.50;3.07;;;14.10;99.90;;;;;;5017125;28;20225;-95
2022/07/14 09:10:35;;;;;;;8.67;3.57;;;14.00;99.90;;;;;;5015977;28;20248;-95
2022/07/14 09:13:28;;;;;;;7.47;3.03;;;14.00;99.90;;;;;;5016564;28;20265;-95
2022/07/14 09:16:22;;;;;;;6.50;3.13;;;13.90;99.90;;;;;;5017003;28;20226;-95
2022/07/14 09:19:08;;;;;;;7.50;3.43;;;13.80;99.90;;;;;;5002881;28;20274;-96
2022/07/14 09:21:42;;;;;;;8.43;3.40;;;13.80;99.90;;;;;;5001471;28;20304;-95
2022/07/14 09:24:19;;;;;;;9.17;3.20;;;13.70;99.90;;;;;;5000971;28;20217;-96
2022/07/14 09:26:57;;;;;;;6.93;3.07;;;13.80;99.90;;;;;;5000298;28;20261;-96
2022/07/14 09:29:30;;;;;;;8.70;3.30;;;13.80;99.90;;;;;;5000115;28;20217;-95
2022/07/14 09:32:08;;;;;;;8.97;3.83;;;13.80;99.90;;;;;;4999405;28;20201;-96
2022/07/14 09:34:42;;;;;;;10.33;3.10;;;13.70;99.90;;;;;;4999784;28;20210;-96
2022/07/14 09:37:17;;;;;;;5.33;3.13;;;13.70;99.90;;;;;;5000084;28;20241;-96
2022/07/14 09:39:57;;;;;;;7.73;3.60;;;13.70;99.90;;;;;;4999817;28;20214;-95
2022/07/14 09:42:50;;;;;;;6.87;3.00;;;13.70;99.90;;;;;;5001267;28;20315;-95
2022/07/14 09:45:26;;;;;;;6.90;2.90;;;13.60;99.90;;;;;;5001235;28;20289;-96
2022/07/14 09:48:07;;;;;;;6.20;2.83;;;13.50;99.90;;;;;;5001170;28;20241;-96
2022/07/14 09:50:51;;;;;;;7.70;3.07;;;13.50;99.90;;;;;;5002374;28;20243;-96
2022/07/14 09:53:25;;;;;;;5.40;3.40;;;13.50;99.90;;;;;;5013878;28;20206;-96
2022/07/14 09:56:01;;;;;;;7.37;3.30;;;13.50;99.90;;;;;;5002200;28;20217;-96
2022/07/14 09:58:44;;;;;;;4.90;3.20;;;13.50;99.90;;;;;;4973389;28;20268;-96
2022/07/14 10:01:21;;;;;;;5.73;2.90;;;13.50;99.90;;;;;;5007251;28;20217;-96
2022/07/14 10:03:58;;;;;;;5.33;2.70;;;13.40;99.90;;;;;;4986679;28;20292;-96
2022/07/14 10:06:34;;;;;;;8.03;2.90;;;13.40;99.90;;;;;;5009656;28;20247;-96
2022/07/14 10:09:12;;;;;;;6.07;3.40;;;13.40;99.90;;;;;;5007545;28;20214;-96
2022/07/14 10:11:44;;;;;;;6.63;2.97;;;13.40;99.90;;;;;;5009239;28;20233;-96
2022/07/14 10:14:18;;;;;;;6.80;3.13;;;13.30;99.90;;;;;;4998998;28;20356;-95
2022/07/14 10:16:55;;;;;;;6.30;3.17;;;13.40;99.90;;;;;;4999221;28;20606;-96
2022/07/14 10:19:32;;;;;;;5.87;2.90;;;13.30;99.90;;;;;;4998047;28;20214;-96
2022/07/14 10:22:05;;;;;;;7.70;3.13;;;13.30;99.90;;;;;;4998016;28;20206;-96
2022/07/14 10:24:42;;;;;;;9.53;3.13;;;13.30;99.90;;;;;;4998668;28;20209;-96
2022/07/14 10:27:15;;;;;;;8.60;3.50;;;13.30;99.90;;;;;;4998703;28;20397;-96
2022/07/14 10:29:52;;;;;;;6.83;3.03;;;13.20;99.90;;;;;;4998871;28;20229;-95
2022/07/14 10:32:38;;;;;;;4.73;2.90;;;13.10;99.90;;;;;;4981488;28;20647;-96
2022/07/14 10:35:40;;;;;;;7.73;2.77;;;13.20;99.90;;;;;;5003516;28;20214;-96
2022/07/14 10:38:53;;;;;;;9.23;4.13;;;13.20;99.90;;;;;;5000302;28;20225;-96
2022/07/14 10:41:56;;;;;;;6.07;3.13;;;13.20;99.90;;;;;;5001744;28;20254;-96
2022/07/14 10:44:34;;;;;;;5.63;3.30;;;13.10;99.90;;;;;;5002129;28;20694;-95
2022/07/14 10:47:11;;;;;;;6.47;3.10;;;13.10;99.90;;;;;;5002562;28;20264;-96
2022/07/14 10:50:14;;;;;;;8.30;3.00;;;13.10;99.90;;;;;;5002521;28;20210;-96
2022/07/14 10:53:14;;;;;;;5.43;2.90;;;13.10;99.90;;;;;;4982682;28;20217;-96
2022/07/14 10:55:49;;;;;;;8.97;3.53;;;13.00;99.90;;;;;;4951651;28;20211;-96
2022/07/14 10:58:33;;;;;;;6.57;3.23;;;13.00;99.90;;;;;;4965728;28;20215;-96
2022/07/14 11:01:10;;;;;;;5.10;2.97;;;13.00;99.90;;;;;;4965761;28;20289;-96
2022/07/14 11:03:55;;;;;;;7.70;3.30;;;12.90;99.90;;;;;;4984468;28;20613;-96
2022/07/14 11:06:29;;;;;;;4.73;3.07;;;12.90;99.90;;;;;;4984415;28;20318;-95
2022/07/14 11:12:32;;;;;;;5.73;3.13;;;12.80;99.90;;;;;;4984049;28;20207;-95
2022/07/14 11:15:26;;;;;;;6.90;3.27;;;12.80;99.90;;;;;;4985127;28;20663;-96
2022/07/14 11:18:27;;;;;;;6.83;2.93;;;12.80;99.90;;;;;;4984842;28;20219;-96
2022/07/14 11:21:05;;;;;;;4.33;2.93;;;12.80;99.90;;;;;;4968669;28;20215;-95
2022/07/14 11:23:55;;;;;;;7.67;3.30;;;12.80;99.90;;;;;;4983277;28;20704;-96
2022/07/14 11:26:40;;;;;;;7.33;3.27;;;12.80;99.90;;;;;;4983469;28;20206;-96
2022/07/14 11:29:38;;;;;;;5.00;3.60;;;12.70;99.90;;;;;;4982927;28;20218;-96
2022/07/14 11:32:32;;;;;;;4.83;3.33;;;12.70;99.90;;;;;;4982850;28;20268;-95
2022/07/14 11:38:03;;;;;;;5.67;3.07;;;12.70;99.90;;;;;;4984522;28;20360;-96
2022/07/14 11:40:50;;;;;;;3.83;3.10;;;12.60;99.90;;;;;;4998058;28;20222;-96
2022/07/14 11:43:54;;;;;;;6.57;3.60;;;12.50;99.90;;;;;;5017885;28;20293;-95
2022/07/14 11:46:31;;;;;;;7.67;3.47;;;12.50;99.90;;;;;;5018486;28;20245;-96
2022/07/14 11:49:04;;;;;;;5.73;3.20;;;12.50;99.90;;;;;;5018089;28;20229;-96
2022/07/14 11:51:39;;;;;;;5.57;2.83;;;12.40;99.90;;;;;;5017830;28;20199;-95
2022/07/14 11:54:14;;;;;;;6.27;3.00;;;12.50;99.90;;;;;;5018409;28;20216;-96
2022/07/14 11:56:49;;;;;;;8.47;3.67;;;12.40;99.90;;;;;;5017860;28;20253;-96
2022/07/14 11:59:25;;;;;;;6.80;3.40;;;12.40;99.90;;;;;;5014208;28;20210;-95
2022/07/14 12:02:18;;;;;;;7.30;3.20;;;12.30;99.90;;;;;;5005620;28;20249;-96
2022/07/14 12:05:02;;;;;;;5.63;3.57;;;12.30;99.90;;;;;;4990117;28;20237;-95
2022/07/14 12:07:47;;;;;;;8.47;3.70;;;12.30;99.90;;;;;;5003235;28;20237;-96
2022/07/14 12:10:37;;;;;;;7.90;3.67;;;12.30;99.90;;;;;;5002527;28;20221;-96
2022/07/14 12:13:10;;;;;;;5.33;3.40;;;12.30;99.90;;;;;;5002891;28;20214;-96
2022/07/14 12:15:49;;;;;;;7.20;3.73;;;12.30;99.90;;;;;;5004676;28;20372;-96
2022/07/14 12:18:32;;;;;;;7.27;3.30;;;12.20;99.90;;;;;;5002572;28;20296;-96
2022/07/14 12:23:55;;;;;;;4.70;3.13;;;12.30;99.90;;;;;;4982749;28;20230;-96
2022/07/14 12:26:28;;;;;;;9.40;3.70;;;12.30;99.90;;;;;;4983305;28;20289;-96
2022/07/14 12:29:08;;;;;;;5.80;3.23;;;12.30;99.90;;;;;;4982742;28;20596;-95
2022/07/14 12:31:44;;;;;;;5.17;3.13;;;12.30;99.90;;;;;;4965617;28;20234;-96
2022/07/14 12:34:23;;;;;;;4.93;3.13;;;12.30;99.90;;;;;;4983557;28;20214;-96
2022/07/14 12:36:59;;;;;;;8.60;3.33;;;12.30;99.90;;;;;;4982843;28;20232;-96
2022/07/14 12:39:32;;;;;;;6.27;3.30;;;12.30;99.90;;;;;;4985299;28;20281;-96
2022/07/14 12:42:08;;;;;;;6.90;3.63;;;12.30;99.90;;;;;;4982693;28;20214;-96
2022/07/14 12:48:00;;;;;;;9.30;3.20;;;12.20;99.90;;;;;;4997823;28;20278;-96
2022/07/14 12:50:48;;;;;;;7.33;3.40;;;12.20;99.90;;;;;;5001698;28;20268;-95
2022/07/14 12:53:22;;;;;;;7.87;3.90;;;12.30;99.90;;;;;;5004225;28;20210;-96
2022/07/14 12:56:06;;;;;;;9.07;3.73;;;12.30;99.90;;;;;;5002815;28;20230;-96
2022/07/14 12:58:40;;;;;;;7.00;3.47;;;12.30;99.90;;;;;;5003493;28;20230;-95
2022/07/14 13:01:18;;;;;;;6.63;3.27;;;12.30;99.90;;;;;;4985181;28;20222;-96
2022/07/14 13:03:59;;;;;;;7.50;3.60;;;12.40;99.90;;;;;;5001698;28;20289;-96
2022/07/14 13:06:47;;;;;;;6.00;3.43;;;12.40;99.90;;;;;;5000271;28;20210;-96
2022/07/14 13:09:21;;;;;;;6.90;3.43;;;12.50;99.90;;;;;;4655533;28;10000276;-96
2022/07/14 13:11:55;;;;;;;7.17;3.23;;;12.60;99.90;;;;;;5000493;28;20265;-95
2022/07/14 13:14:29;;;;;;;9.60;3.57;;;12.60;99.90;;;;;;4999724;28;20206;-95
2022/07/14 13:17:06;;;;;;;7.87;3.33;;;12.60;99.90;;;;;;5000592;28;20221;-96
2022/07/14 13:19:38;;;;;;;8.53;2.60;;;12.60;99.90;;;;;;4983223;28;20209;-96
2022/07/14 13:22:13;;;;;;;6.97;3.33;;;12.60;99.90;;;;;;4999329;28;20572;-96
2022/07/14 13:24:48;;;;;;;8.70;3.20;;;12.70;99.90;;;;;;5001875;28;20210;-95
2022/07/14 13:27:32;;;;;;;4.93;3.00;;;12.70;99.90;;;;;;5001058;28;20229;-95
2022/07/14 13:30:08;;;;;;;7.03;3.30;;;12.70;99.90;;;;;;5000713;28;20237;-95
2022/07/14 13:32:41;;;;;;;7.73;3.50;;;12.80;99.90;;;;;;5001370;28;20277;-96
2022/07/14 13:35:16;;;;;;;4.93;2.70;;;12.80;99.90;;;;;;5001231;28;20274;-96
2022/07/14 13:37:50;;;;;;;8.53;3.07;;;12.90;99.90;;;;;;5003349;28;20272;-96
2022/07/14 13:40:27;;;;;;;11.17;3.37;;;12.90;99.90;;;;;;5005254;28;20238;-95
2022/07/14 13:43:01;;;;;;;5.40;3.00;;;12.80;99.90;;;;;;4967174;28;20215;-96
2022/07/14 13:45:33;;;;;;;4.80;2.83;;;12.90;99.90;;;;;;4975760;28;20208;-96
2022/07/14 13:48:12;;;;;;;4.57;2.80;;;12.90;99.90;;;;;;5001381;28;20297;-96
2022/07/14 13:53:35;;;;;;;7.17;2.93;;;13.00;99.90;;;;;;5003241;28;20220;-96
2022/07/14 13:56:08;;;;;;;7.30;2.90;;;13.00;99.90;;;;;;5011003;28;20284;-96
2022/07/14 14:01:35;;;;;;;7.03;3.20;;;13.10;99.90;;;;;;5015683;28;20303;-96
2022/07/14 14:04:11;;;;;;;5.37;2.70;;;13.10;99.90;;;;;;5015982;28;20190;-96
2022/07/14 14:06:57;;;;;;;5.57;2.80;;;13.20;99.90;;;;;;4999591;28;20198;-96
2022/07/14 14:09:37;;;;;;;5.67;2.93;;;13.20;99.90;;;;;;5002741;28;20249;-95
2022/07/14 14:12:12;;;;;;;6.20;3.20;;;13.20;99.90;;;;;;4987994;28;20281;-96
2022/07/14 14:14:55;;;;;;;6.13;2.50;;;13.20;99.90;;;;;;5004069;28;20313;-96
2022/07/14 14:17:40;;;;;;;4.83;2.40;;;13.20;99.90;;;;;;5003578;28;20210;-96
2022/07/14 14:20:24;;;;;;;4.27;2.70;;;13.30;99.90;;;;;;5004341;28;20224;-96
2022/07/14 14:22:56;;;;;;;4.13;2.53;;;13.30;99.90;;;;;;5009524;28;20202;-96
2022/07/14 14:25:33;;;;;;;5.67;2.57;;;13.40;99.90;;;;;;5015843;28;20190;-96
2022/07/14 14:28:11;;;;;;;6.50;2.90;;;13.40;99.90;;;;;;5016199;28;20214;-96
2022/07/14 14:30:46;;;;;;;3.80;2.63;;;13.50;99.90;;;;;;5016023;28;20214;-96
2022/07/14 14:33:19;;;;;;;5.20;2.63;;;13.50;99.90;;;;;;5015167;28;20214;-96
2022/07/14 14:36:07;;;;;;;5.47;2.47;;;13.60;99.90;;;;;;5015331;28;20257;-96
2022/07/14 14:38:41;;;;;;;4.33;2.60;;;13.60;99.90;;;;;;4999067;28;20206;-96
2022/07/14 14:41:16;;;;;;;4.47;2.47;;;13.60;99.90;;;;;;5002184;28;20206;-96
2022/07/14 14:43:56;;;;;;;4.30;2.53;;;13.70;99.90;;;;;;5003189;28;20209;-96
2022/07/14 14:46:34;;;;;;;9.07;2.60;;;13.90;99.90;;;;;;4992861;28;20297;-96
2022/07/14 14:52:12;;;;;;;4.83;2.20;;;15.20;99.90;;;;;;5008231;28;20233;-96
2022/07/14 14:58:31;;;;;;;4.17;2.23;;;16.60;99.90;;;;;;5008872;28;20245;-96
2022/07/14 15:08:36;;;;;;;3.87;2.00;;;17.80;99.90;;;;;;5011288;28;20187;-96
2022/07/14 15:11:22;;;;;;;4.40;2.10;;;17.90;99.90;;;;;;5011499;28;20211;-97
2022/07/14 15:16:58;;;;;;;4.03;2.17;;;18.40;99.90;;;;;;5009153;28;20267;-96
2022/07/14 15:32:12;;;;;;;5.60;1.90;;;19.30;99.90;;;;;;5015704;28;20207;-96
2022/07/14 15:48:28;;;;;;;3.67;2.43;;;18.10;99.90;;;;;;5013615;28;20213;-96
2022/07/14 15:51:11;;;;;;;2.63;1.83;;;18.20;99.90;;;;;;4999072;28;20230;-96
2022/07/14 15:56:48;;;;;;;3.97;2.10;;;17.50;99.90;;;;;;5012323;28;20272;-96
2022/07/14 16:02:45;;;;;;;5.70;2.17;;;17.60;99.90;;;;;;5017539;28;20222;-96
2022/07/14 16:05:58;;;;;;;4.27;2.03;;;17.50;99.90;;;;;;5018022;28;20191;-96
2022/07/14 16:08:42;;;;;;;3.63;2.07;;;17.60;99.90;;;;;;5018049;28;20202;-96
2022/07/14 16:11:27;;;;;;;7.30;2.77;;;17.70;99.90;;;;;;5016939;28;20255;-96
2022/07/14 16:13:59;;;;;;;2.67;2.03;;;17.40;99.90;;;;;;5003440;28;20202;-96
2022/07/14 16:19:21;;;;;;;4.07;2.40;;;17.40;99.90;;;;;;5018131;28;20277;-96
2022/07/14 16:22:10;;;;;;;4.80;2.30;;;17.30;99.90;;;;;;5017837;28;20209;-96
2022/07/14 16:24:49;;;;;;;5.43;2.27;;;17.40;99.90;;;;;;5003251;28;20183;-96
2022/07/14 16:27:24;;;;;;;5.23;2.47;;;17.50;99.90;;;;;;5018357;28;20693;-96
2022/07/14 16:29:58;;;;;;;6.00;2.70;;;17.60;99.90;;;;;;4993129;28;20293;-96
2022/07/14 16:35:24;;;;;;;10.07;2.63;;;17.60;99.90;;;;;;5003932;28;20656;-96
2022/07/14 16:38:05;;;;;;;5.77;2.50;;;17.70;99.90;;;;;;5172806;23;20264;-96
2022/07/14 16:40:58;;;;;;;4.20;2.63;;;17.70;99.90;;;;;;4989228;28;20627;-96
2022/07/14 16:43:38;;;;;;;6.87;2.67;;;17.70;99.90;;;;;;5003627;28;20637;-96
2022/07/14 16:46:24;;;;;;;4.40;2.50;;;17.80;99.90;;;;;;4992955;28;20199;-96
2022/07/14 16:52:08;;;;;;;4.53;2.83;;;17.50;99.90;;;;;;5007183;28;20206;-96
2022/07/14 16:55:04;;;;;;;5.27;2.83;;;17.40;99.90;;;;;;4992904;28;20202;-96
2022/07/14 17:00:30;;;;;;;4.50;2.40;;;17.60;99.90;;;;;;5008080;28;20274;-96
2022/07/14 17:36:44;;;;;;;5.13;2.70;;;18.30;99.90;;;;;;5004647;28;20237;-96
2022/07/14 17:39:17;;;;;;;4.60;2.67;;;18.50;99.90;;;;;;5002724;28;20213;-96
2022/07/14 17:41:50;;;;;;;5.13;3.23;;;18.70;99.90;;;;;;5004442;28;20206;-96
2022/07/14 17:44:25;;;;;;;8.43;2.83;;;18.50;99.90;;;;;;5002420;28;20666;-96
2022/07/14 17:46:57;;;;;;;8.43;3.40;;;18.40;99.90;;;;;;4990251;28;20573;-96
2022/07/14 17:49:31;;;;;;;8.03;3.20;;;18.60;99.90;;;;;;5003387;28;20222;-96
2022/07/14 17:52:15;;;;;;;7.37;3.43;;;18.70;99.90;;;;;;4988241;28;20236;-96
2022/07/14 17:54:52;;;;;;;5.17;2.70;;;18.80;99.90;;;;;;5009784;28;20210;-97
2022/07/14 17:57:34;;;;;;;4.53;2.60;;;18.90;99.90;;;;;;5006736;28;20274;-96
2022/07/14 18:00:21;;;;;;;8.97;3.00;;;19.00;99.90;;;;;;5005806;28;20221;-96
2022/07/14 18:12:48;;;;;;;5.70;2.70;;;19.40;99.90;;;;;;5006368;28;20218;-96
2022/07/14 18:15:21;;;;;;;7.10;3.17;;;19.40;99.90;;;;;;4991841;28;20530;-96
2022/07/14 18:17:57;;;;;;;4.80;3.07;;;19.60;99.90;;;;;;5002080;28;20202;-96
2022/07/14 18:23:57;;;;;;;7.33;3.20;;;19.90;99.90;;;;;;5012072;28;20194;-96
2022/07/14 18:26:40;;;;;;;4.40;2.57;;;19.80;99.90;;;;;;4996704;28;20214;-96
2022/07/14 18:29:27;;;;;;;5.30;3.00;;;19.80;99.90;;;;;;5012444;28;20214;-96
2022/07/14 18:37:56;;;;;;;5.20;2.60;;;20.00;99.90;;;;;;5051492;23;20248;-96
2022/07/14 18:40:37;;;;;;;5.00;2.40;;;20.20;99.90;;;;;;4995852;28;20278;-96
2022/07/14 18:43:15;;;;;;;4.33;2.67;;;20.20;99.90;;;;;;4665809;28;9999687;-96
2022/07/14 18:46:15;;;;;;;5.63;2.90;;;20.20;99.90;;;;;;5010948;28;20500;-96
2022/07/14 18:48:54;;;;;;;7.20;3.07;;;20.00;99.90;;;;;;5010448;28;20863;-96
2022/07/14 18:51:30;;;;;;;4.27;2.33;;;20.20;99.90;;;;;;5011747;28;20232;-96
2022/07/14 18:54:16;;;;;;;5.80;2.77;;;20.00;99.90;;;;;;5014172;28;20191;-96
2022/07/14 18:59:33;;;;;;;9.97;2.80;;;20.30;99.90;;;;;;5102493;23;20682;-96
2022/07/14 19:02:22;;;;;;;9.37;2.63;;;20.30;99.90;;;;;;5012991;28;20214;-96
2022/07/14 19:05:21;;;;;;;4.43;2.60;;;20.40;99.90;;;;;;5356638;23;20839;-96
2022/07/14 19:24:48;;;;;;;6.80;2.70;;;20.70;99.90;;;;;;5559021;23;20313;-96
2022/07/14 19:27:47;;;;;;;3.73;2.57;;;20.50;99.90;;;;;;5004247;28;20218;-96
2022/07/14 19:30:40;;;;;;;4.60;2.30;;;20.60;99.90;;;;;;4997852;28;20234;-96
2022/07/14 19:33:16;;;;;;;3.70;1.90;;;20.80;99.90;;;;;;5014538;28;20233;-96
2022/07/14 19:42:28;;;;;;;4.53;2.10;;;21.00;99.90;;;;;;5033995;28;20288;-96
2022/07/14 19:52:56;;;;;;;5.23;2.43;;;21.10;99.90;;;;;;5017761;28;20217;-96
2022/07/14 19:55:31;;;;;;;2.57;2.20;;;21.00;99.90;;;;;;5019075;28;20205;-96
2022/07/14 20:03:44;;;;;;;3.03;1.93;;;21.50;99.90;;;;;;5017079;28;20217;-96
2022/07/14 20:06:16;;;;;;;6.87;3.23;;;21.70;99.90;;;;;;5006472;28;20626;-96
2022/07/14 20:08:49;;;;;;;6.23;2.90;;;21.70;99.90;;;;;;5005677;28;20212;-96
2022/07/14 20:11:26;;;;;;;7.17;2.20;;;21.90;99.90;;;;;;5004880;28;20240;-96
2022/07/14 20:13:59;;;;;;;7.17;2.57;;;21.80;99.90;;;;;;5006411;28;20298;-96
2022/07/14 20:16:32;;;;;;;5.50;2.47;;;22.00;99.90;;;;;;4992266;28;20286;-96
2022/07/14 20:19:13;;;;;;;4.67;2.20;;;22.10;99.90;;;;;;5003784;28;20643;-96